This is the latest recevied weather packets stored in our database for station/object OE-2100. If no packets are shown the sender has not sent any weather packets the latest 10 day(s).
| Time | Temp. | Humidity | Pressure | Rain* | Wind** | Luminosity | Snow |
|---|---|---|---|---|---|---|---|
| 1788171068 | 22.22° C | 67% | 1016.6 hPa | - | - | - | - |
| 1788169268 | 21.11° C | 70% | 1016.8 hPa | - | - | - | - |
| 1788167468 | 20.56° C | 78% | 1016.9 hPa | - | - | - | - |
| 1788165668 | 20.56° C | 80% | 1017 hPa | - | - | - | - |
| 1788163868 | 18.89° C | 85% | 1017.4 hPa | - | - | - | - |
| 1788162068 | 17.78° C | 90% | 1017.8 hPa | - | - | - | - |
| 1788160268 | 16.67° C | 91% | 1018 hPa | - | - | - | - |
| 1788158468 | 17.22° C | 88% | 1017.9 hPa | - | - | - | - |
| 1788156667 | 16.67° C | 87% | 1018 hPa | - | - | - | - |
| 1788154868 | 16.67° C | 87% | 1018 hPa | - | - | - | - |
| 1788153068 | 17.78° C | 85% | 1016.7 hPa | - | - | - | - |
| 1788151267 | 19.44° C | 74% | 1015.1 hPa | - | - | - | - |
| 1788149707 | 18.33° C | 83% | 1014.4 hPa | - | - | - | - |
| 1788145868 | 19.44° C | 72% | 1015.1 hPa | - | - | - | - |
| 1788122469 | 21.67° C | 62% | 1015.7 hPa | - | - | - | - |
| 1788120668 | 21.67° C | 60% | 1014.5 hPa | - | - | - | - |
| 1788118868 | 22.22° C | 59% | 1014.5 hPa | - | - | - | - |
| 1788117068 | 22.78° C | 57% | 1014.3 hPa | - | - | - | - |
| 1788115269 | 22.78° C | 55% | 1014.2 hPa | - | - | - | - |
| 1788113468 | 23.33° C | 54% | 1014.1 hPa | - | - | - | - |
| 1788109868 | 24.44° C | 52% | 1012.8 hPa | - | - | - | - |
| 1788108068 | 25° C | 51% | 1012.7 hPa | - | - | - | - |
| 1788106269 | 25° C | 51% | 1012.6 hPa | - | - | - | - |
| 1788104468 | 25.56° C | 51% | 1012.6 hPa | - | - | - | - |
| 1788102668 | 25.56° C | 51% | 1012.6 hPa | - | - | - | - |
* Rain since midnight (hover to see other rain measurements)
** Current wind speed in m/s (hover to see current wind gust speed)